createdAt,value
2018-08-03T00:01:19.277Z,9.50
2018-08-03T00:03:50.089Z,7.67
2018-08-03T00:06:20.463Z,9.60
2018-08-03T00:08:51.243Z,9.43
2018-08-03T00:11:21.864Z,8.43
2018-08-03T00:13:52.531Z,10.67
2018-08-03T00:16:23.281Z,9.93
2018-08-03T00:18:53.872Z,8.57
2018-08-03T00:21:24.155Z,8.57
2018-08-03T00:23:54.290Z,9.37
2018-08-03T00:26:24.505Z,9.97
2018-08-03T00:28:54.878Z,9.23
2018-08-03T00:31:25.121Z,9.40
2018-08-03T00:33:55.574Z,10.90
2018-08-03T00:36:25.897Z,11.63
2018-08-03T00:38:56.368Z,9.23
2018-08-03T00:41:26.814Z,11.20
2018-08-03T00:44:04.552Z,11.17
2018-08-03T00:46:35.035Z,10.97
2018-08-03T00:49:06.605Z,9.33
2018-08-03T00:51:36.798Z,8.87
2018-08-03T00:54:07.392Z,9.97
2018-08-03T00:56:38.132Z,9.67
2018-08-03T00:59:08.635Z,11.87
2018-08-03T01:01:39.400Z,10.47
2018-08-03T01:04:09.995Z,10.10
2018-08-03T01:06:40.436Z,10.77
2018-08-03T01:09:15.926Z,10.37
2018-08-03T01:11:46.488Z,10.53
2018-08-03T01:14:17.204Z,10.20
2018-08-03T01:17:05.547Z,10.93
2018-08-03T01:19:36.336Z,10.33
2018-08-03T01:22:06.771Z,12.13
2018-08-03T01:24:37.393Z,11.93
2018-08-03T01:27:30.583Z,13.33
2018-08-03T01:30:05.219Z,10.80
2018-08-03T01:32:36.095Z,11.73
2018-08-03T01:35:06.587Z,10.00
2018-08-03T01:37:37.275Z,9.90
2018-08-03T01:40:19.562Z,11.13
2018-08-03T01:42:50.221Z,13.67
2018-08-03T01:45:20.652Z,10.47
2018-08-03T01:48:08.172Z,11.27
2018-08-03T01:50:38.554Z,9.60
2018-08-03T01:53:09.144Z,13.53
2018-08-03T01:55:39.728Z,11.20
2018-08-03T01:58:10.126Z,11.33
2018-08-03T02:00:40.563Z,12.27
2018-08-03T02:03:11.078Z,11.17
2018-08-03T02:05:41.578Z,11.17
2018-08-03T02:08:12.088Z,10.87
2018-08-03T02:10:42.731Z,12.47
2018-08-03T02:13:13.158Z,10.67
2018-08-03T02:15:43.731Z,11.63
2018-08-03T02:18:14.340Z,12.80
2018-08-03T02:20:44.919Z,9.80
2018-08-03T02:23:15.472Z,11.33
2018-08-03T02:25:45.911Z,10.97
2018-08-03T02:28:16.337Z,15.27
2018-08-03T02:30:46.814Z,12.70
2018-08-03T02:33:17.400Z,10.97
2018-08-03T02:35:48.072Z,11.60
2018-08-03T02:38:18.736Z,11.57
2018-08-03T02:40:49.355Z,12.53
2018-08-03T02:43:20.046Z,10.77
2018-08-03T02:45:50.519Z,12.80
2018-08-03T02:51:22.380Z,11.53
2018-08-03T02:53:53.199Z,12.07
2018-08-03T02:56:24.258Z,13.50
2018-08-03T02:58:55.264Z,11.53
2018-08-03T03:01:26.249Z,13.30
2018-08-03T03:03:56.923Z,12.37
2018-08-03T03:06:28.003Z,11.33
2018-08-03T03:08:58.971Z,11.07
2018-08-03T03:11:29.547Z,13.43
2018-08-03T03:14:00.122Z,13.67
2018-08-03T03:16:30.519Z,12.37
2018-08-03T03:19:00.848Z,11.97
2018-08-03T03:21:31.303Z,14.10
2018-08-03T03:24:01.836Z,12.57
2018-08-03T03:26:32.348Z,11.07
2018-08-03T03:29:02.992Z,13.60
2018-08-03T03:31:33.872Z,14.63
2018-08-03T03:34:04.333Z,13.93
2018-08-03T03:36:35.140Z,14.97
2018-08-03T03:39:09.771Z,13.47
2018-08-03T03:41:50.588Z,13.87
2018-08-03T03:44:21.065Z,11.90
2018-08-03T03:46:51.562Z,12.63
2018-08-03T03:49:22.079Z,12.33
2018-08-03T03:51:52.548Z,13.33
2018-08-03T03:54:22.994Z,12.70
2018-08-03T03:56:53.485Z,11.70
2018-08-03T03:59:23.863Z,12.07
2018-08-03T04:01:54.279Z,12.93
2018-08-03T04:04:24.724Z,14.27
2018-08-03T04:06:55.407Z,12.70
2018-08-03T04:09:39.525Z,12.83
2018-08-03T04:12:10.385Z,11.40
2018-08-03T04:14:41.131Z,14.43
2018-08-03T04:17:11.656Z,12.93
2018-08-03T04:19:41.931Z,12.23
2018-08-03T04:22:12.448Z,12.10
2018-08-03T04:24:42.994Z,14.73
2018-08-03T04:27:13.667Z,12.80
2018-08-03T04:29:44.126Z,13.57
2018-08-03T04:32:14.251Z,13.37
2018-08-03T04:34:44.619Z,12.80
2018-08-03T04:37:18.823Z,13.53
2018-08-03T04:39:49.202Z,13.40
2018-08-03T04:42:19.870Z,14.03
2018-08-03T04:44:50.386Z,14.40
2018-08-03T04:47:21.319Z,13.27
2018-08-03T04:49:51.850Z,12.43
2018-08-03T04:52:22.398Z,13.83
2018-08-03T04:54:52.827Z,12.00
2018-08-03T04:57:23.219Z,12.07
2018-08-03T04:59:53.630Z,13.83
2018-08-03T05:02:24.081Z,12.10
2018-08-03T05:04:54.612Z,14.60
2018-08-03T05:07:24.975Z,11.03
2018-08-03T05:09:55.511Z,12.77
2018-08-03T05:12:25.968Z,11.43
2018-08-03T05:14:56.435Z,12.67
2018-08-03T05:17:26.923Z,11.03
2018-08-03T05:19:57.424Z,11.40
2018-08-03T05:22:27.892Z,10.83
2018-08-03T05:24:58.334Z,11.43
2018-08-03T05:27:28.884Z,14.37
2018-08-03T05:29:59.299Z,10.47
2018-08-03T05:32:29.944Z,12.03
2018-08-03T05:35:00.417Z,11.60
2018-08-03T05:37:30.971Z,9.77
2018-08-03T05:40:01.477Z,11.97
2018-08-03T05:42:36.070Z,13.07
2018-08-03T05:45:07.367Z,11.00
2018-08-03T05:47:37.811Z,10.13
2018-08-03T05:50:12.776Z,11.83
2018-08-03T05:52:43.293Z,12.13
2018-08-03T05:55:24.020Z,9.65
2018-08-03T05:57:54.455Z,11.00
2018-08-03T06:00:25.542Z,11.55
2018-08-03T06:02:56.033Z,12.43
2018-08-03T06:05:26.743Z,10.28
2018-08-03T06:07:57.264Z,13.32
2018-08-03T06:10:27.879Z,8.93
2018-08-03T06:15:58.984Z,11.95
2018-08-03T06:18:29.448Z,11.22
2018-08-03T06:21:08.223Z,10.32
2018-08-03T06:23:38.830Z,11.73
2018-08-03T06:26:09.756Z,10.05
2018-08-03T06:28:40.319Z,9.90
2018-08-03T06:31:10.823Z,10.68
2018-08-03T06:33:41.308Z,9.58
2018-08-03T06:36:19.519Z,10.18
2018-08-03T06:38:50.199Z,8.93
2018-08-03T06:41:20.871Z,10.60
2018-08-03T06:43:52.399Z,8.83
2018-08-03T06:46:22.860Z,8.18
2018-08-03T06:48:53.583Z,10.50
2018-08-03T06:51:26.799Z,10.63
2018-08-03T06:53:57.274Z,10.88
2018-08-03T06:56:29.763Z,14.73
2018-08-03T06:59:00.187Z,8.63
2018-08-03T07:01:32.896Z,10.03
2018-08-03T07:04:04.456Z,9.25
2018-08-03T07:06:35.776Z,9.23
2018-08-03T07:09:11.761Z,12.63
2018-08-03T07:11:42.438Z,9.60
2018-08-03T07:14:13.121Z,9.50
2018-08-03T07:16:46.693Z,9.88
2018-08-03T07:19:17.675Z,10.80
2018-08-03T07:21:48.200Z,9.28
2018-08-03T07:24:18.602Z,10.28
2018-08-03T07:26:49.472Z,10.18
2018-08-03T07:29:20.074Z,9.75
2018-08-03T07:31:50.748Z,10.25
2018-08-03T07:34:21.323Z,10.88
2018-08-03T07:36:52.389Z,11.25
2018-08-03T07:39:22.973Z,10.58
2018-08-03T07:41:55.443Z,11.83
2018-08-03T07:44:25.790Z,10.45
2018-08-03T07:46:56.196Z,13.08
2018-08-03T07:49:26.734Z,10.88
2018-08-03T07:51:57.324Z,11.22
2018-08-03T07:54:27.337Z,11.08
2018-08-03T07:56:57.647Z,9.95
2018-08-03T07:59:28.186Z,11.68
2018-08-03T08:01:58.850Z,11.75
2018-08-03T08:04:29.230Z,12.00
2018-08-03T08:06:59.607Z,13.70
2018-08-03T08:09:30.219Z,10.82
2018-08-03T08:12:00.875Z,10.08
2018-08-03T08:14:31.290Z,10.18
2018-08-03T08:17:01.798Z,10.50
2018-08-03T08:19:32.080Z,12.30
2018-08-03T08:22:02.619Z,11.22
2018-08-03T08:24:33.312Z,11.75
2018-08-03T08:27:03.757Z,9.40
2018-08-03T08:29:34.412Z,11.90
2018-08-03T08:32:04.884Z,11.03
2018-08-03T08:34:35.324Z,10.18
2018-08-03T08:37:05.948Z,10.45
2018-08-03T08:39:36.326Z,10.13
2018-08-03T08:42:07.160Z,12.73
2018-08-03T08:44:37.876Z,12.65
2018-08-03T08:47:07.655Z,10.68
2018-08-03T08:49:38.083Z,10.58
2018-08-03T08:52:08.409Z,10.05
2018-08-03T08:54:39.429Z,9.88
2018-08-03T08:57:09.883Z,9.60
2018-08-03T08:59:41.872Z,11.18
2018-08-03T09:02:12.296Z,11.25
2018-08-03T09:10:31.023Z,10.45
2018-08-03T09:13:01.354Z,9.88
2018-08-03T09:15:31.962Z,10.82
2018-08-03T09:18:02.198Z,9.58
2018-08-03T09:20:32.067Z,12.10
2018-08-03T09:23:02.211Z,11.95
2018-08-03T09:25:32.506Z,8.90
2018-08-03T09:28:02.655Z,10.93
2018-08-03T09:30:32.541Z,10.45
2018-08-03T09:33:02.763Z,9.98
2018-08-03T09:35:32.934Z,11.03
2018-08-03T09:38:03.372Z,9.05
2018-08-03T09:40:33.511Z,9.23
2018-08-03T09:43:04.071Z,11.33
2018-08-03T09:45:33.986Z,12.75
2018-08-03T09:48:04.151Z,10.43
2018-08-03T09:50:34.705Z,8.83
2018-08-03T09:53:05.136Z,11.95
2018-08-03T09:55:35.632Z,9.20
2018-08-03T09:58:05.586Z,9.13
2018-08-03T10:00:40.459Z,9.23
2018-08-03T10:03:10.684Z,9.75
2018-08-03T10:05:41.079Z,9.35
2018-08-03T10:08:12.035Z,12.80
2018-08-03T10:10:42.343Z,9.53
2018-08-03T10:13:13.020Z,12.60
2018-08-03T10:15:42.570Z,9.93
2018-08-03T10:18:13.584Z,12.23
2018-08-03T10:20:44.260Z,11.12
2018-08-03T10:23:14.643Z,11.68
2018-08-03T10:25:45.060Z,9.83
2018-08-03T10:28:15.439Z,8.35
2018-08-03T10:30:49.644Z,10.00
2018-08-03T10:33:20.219Z,10.32
2018-08-03T10:35:50.553Z,8.98
2018-08-03T10:38:20.928Z,9.48
2018-08-03T10:40:51.440Z,10.13
2018-08-03T10:43:21.356Z,9.45
2018-08-03T10:45:51.885Z,11.05
2018-08-03T10:48:22.420Z,11.25
2018-08-03T10:51:00.760Z,11.22
2018-08-03T10:53:34.654Z,8.70
2018-08-03T10:56:05.340Z,10.75
2018-08-03T10:58:35.412Z,10.08
2018-08-03T11:01:06.072Z,10.10
2018-08-03T11:03:36.590Z,7.60
2018-08-03T11:06:13.456Z,9.45
2018-08-03T11:08:43.864Z,10.65
2018-08-03T11:11:15.301Z,11.30
2018-08-03T11:13:45.851Z,8.40
2018-08-03T11:16:16.123Z,8.85
2018-08-03T11:18:46.536Z,10.82
2018-08-03T11:21:17.076Z,10.55
2018-08-03T11:23:47.654Z,12.20
2018-08-03T11:26:18.708Z,8.53
2018-08-03T11:28:49.483Z,9.93
2018-08-03T11:31:19.985Z,8.80
2018-08-03T11:33:51.312Z,9.70
2018-08-03T11:36:21.736Z,9.40
2018-08-03T11:38:52.174Z,8.08
2018-08-03T11:41:22.447Z,9.60
2018-08-03T11:43:52.967Z,9.95
2018-08-03T11:46:23.403Z,9.88
2018-08-03T11:48:54.088Z,9.80
2018-08-03T11:51:24.687Z,10.23
2018-08-03T11:53:55.335Z,9.08
2018-08-03T11:56:25.875Z,10.78
2018-08-03T11:58:56.310Z,8.33
2018-08-03T12:01:26.853Z,11.45
2018-08-03T12:03:57.443Z,8.58
2018-08-03T12:06:39.010Z,13.58
2018-08-03T12:09:09.447Z,11.63
2018-08-03T12:11:40.077Z,10.72
2018-08-03T12:14:10.114Z,9.75
2018-08-03T12:16:40.635Z,10.15
2018-08-03T12:19:11.069Z,8.73
2018-08-03T12:21:41.566Z,7.83
2018-08-03T12:24:11.914Z,9.30
2018-08-03T12:26:41.987Z,7.95
2018-08-03T12:29:12.424Z,8.73
2018-08-03T12:31:48.430Z,8.23
2018-08-03T12:34:18.918Z,7.22
2018-08-03T12:36:49.822Z,11.00
2018-08-03T12:39:20.159Z,10.90
2018-08-03T12:41:50.467Z,7.55
2018-08-03T12:44:20.880Z,9.78
2018-08-03T12:46:51.128Z,7.55
2018-08-03T12:49:21.370Z,7.30
2018-08-03T12:51:51.803Z,7.50
2018-08-03T12:54:21.921Z,8.50
2018-08-03T12:56:51.963Z,10.25
2018-08-03T12:59:22.221Z,7.78
2018-08-03T13:01:52.294Z,6.72
2018-08-03T13:04:22.590Z,6.67
2018-08-03T13:06:52.608Z,6.25
2018-08-03T13:09:23.157Z,7.70
2018-08-03T13:11:53.451Z,7.55
2018-08-03T13:14:23.583Z,6.87
2018-08-03T13:16:53.738Z,8.65
2018-08-03T13:19:23.899Z,7.00
2018-08-03T13:21:54.007Z,9.68
2018-08-03T13:24:24.158Z,7.12
2018-08-03T13:26:54.331Z,7.78
2018-08-03T13:29:24.551Z,7.10
2018-08-03T13:31:54.539Z,8.58
2018-08-03T13:34:24.530Z,7.03
2018-08-03T13:36:54.772Z,7.05
2018-08-03T13:39:24.985Z,7.62
2018-08-03T13:41:55.246Z,7.15
2018-08-03T13:44:25.916Z,8.53
2018-08-03T13:46:56.110Z,7.50
2018-08-03T13:49:26.417Z,7.17
2018-08-03T13:51:56.511Z,8.68
2018-08-03T13:54:26.606Z,9.35
2018-08-03T13:56:56.870Z,7.70
2018-08-03T13:59:27.282Z,7.17
2018-08-03T14:02:24.864Z,7.15
2018-08-03T14:04:55.706Z,7.47
2018-08-03T14:07:27.204Z,6.60
2018-08-03T14:09:57.413Z,6.35
2018-08-03T14:12:27.536Z,6.33
2018-08-03T14:14:57.859Z,10.00
2018-08-03T14:17:28.154Z,8.08
2018-08-03T14:19:58.389Z,8.00
2018-08-03T14:22:28.580Z,7.72
2018-08-03T14:24:58.273Z,8.85
2018-08-03T14:27:28.578Z,8.73
2018-08-03T14:30:01.094Z,9.35
2018-08-03T14:32:31.315Z,8.50
2018-08-03T14:35:01.434Z,9.33
2018-08-03T14:37:31.807Z,9.93
2018-08-03T14:40:02.058Z,9.00
2018-08-03T14:42:32.955Z,8.33
2018-08-03T14:45:03.438Z,7.28
2018-08-03T14:47:33.635Z,7.20
2018-08-03T14:50:03.817Z,6.97
2018-08-03T14:52:33.315Z,12.80
2018-08-03T14:55:03.643Z,8.03
2018-08-03T14:57:41.845Z,9.70
2018-08-03T15:00:12.538Z,8.35
2018-08-03T15:02:43.030Z,7.95
2018-08-03T15:05:30.956Z,8.00
2018-08-03T15:08:01.564Z,9.63
2018-08-03T15:10:32.744Z,8.23
2018-08-03T15:13:03.466Z,9.00
2018-08-03T15:15:33.193Z,8.13
2018-08-03T15:18:03.159Z,9.80
2018-08-03T15:20:39.787Z,8.68
2018-08-03T15:23:10.161Z,9.68
2018-08-03T15:25:40.350Z,8.55
2018-08-03T15:28:10.521Z,9.05
2018-08-03T15:30:39.983Z,9.40
2018-08-03T15:33:10.189Z,8.40
2018-08-03T15:35:40.509Z,8.83
2018-08-03T15:38:10.846Z,8.85
2018-08-03T15:40:41.327Z,9.08
2018-08-03T15:43:11.206Z,7.25
2018-08-03T15:45:41.288Z,8.53
2018-08-03T15:48:11.444Z,9.33
2018-08-03T15:50:41.617Z,7.72
2018-08-03T15:53:11.516Z,9.60
2018-08-03T15:55:42.594Z,7.95
2018-08-03T15:58:13.753Z,8.38
2018-08-03T16:00:44.247Z,10.75
2018-08-03T16:03:14.444Z,8.78
2018-08-03T16:05:55.081Z,8.43
2018-08-03T16:08:25.474Z,8.83
2018-08-03T16:10:56.034Z,9.38
2018-08-03T16:13:26.141Z,8.43
2018-08-03T16:15:56.692Z,10.72
2018-08-03T16:18:26.882Z,9.08
2018-08-03T16:20:57.239Z,9.18
2018-08-03T16:23:29.453Z,8.45
2018-08-03T16:26:00.136Z,8.93
2018-08-03T16:28:30.394Z,9.25
2018-08-03T16:31:01.053Z,9.33
2018-08-03T16:33:31.482Z,8.00
2018-08-03T16:36:02.140Z,9.60
2018-08-03T16:38:32.786Z,10.50
2018-08-03T16:41:03.507Z,10.30
2018-08-03T16:43:34.454Z,9.35
2018-08-03T16:46:05.008Z,9.43
2018-08-03T16:48:36.483Z,9.55
2018-08-03T16:51:14.541Z,11.18
2018-08-03T16:53:45.107Z,9.65
2018-08-03T16:56:15.674Z,7.78
2018-08-03T16:58:46.560Z,8.88
2018-08-03T17:01:17.718Z,9.60
2018-08-03T17:03:49.578Z,9.15
2018-08-03T17:06:20.632Z,9.15
2018-08-03T17:08:51.593Z,10.80
2018-08-03T17:11:22.742Z,8.43
2018-08-03T17:13:53.608Z,10.08
2018-08-03T17:16:24.630Z,10.05
2018-08-03T17:18:55.871Z,9.90
2018-08-03T17:21:32.144Z,11.15
2018-08-03T17:24:03.596Z,11.90
2018-08-03T17:26:34.961Z,12.40
2018-08-03T17:29:06.390Z,10.68
2018-08-03T17:31:37.704Z,11.97
2018-08-03T17:34:10.155Z,13.05
2018-08-03T17:36:42.252Z,16.57
2018-08-03T17:39:13.733Z,12.95
2018-08-03T17:41:44.775Z,13.00
2018-08-03T17:44:16.334Z,15.15
2018-08-03T17:46:47.930Z,14.68
2018-08-03T17:49:19.248Z,13.08
2018-08-03T17:51:50.730Z,12.60
2018-08-03T17:54:21.901Z,10.15
2018-08-03T17:56:53.395Z,12.63
2018-08-03T17:59:24.498Z,11.60
2018-08-03T18:01:55.287Z,14.73
2018-08-03T18:04:27.508Z,15.43
2018-08-03T18:06:58.903Z,12.13
2018-08-03T18:09:30.097Z,11.03
2018-08-03T18:12:01.615Z,12.50
2018-08-03T18:14:34.062Z,13.50
2018-08-03T18:17:04.972Z,12.00
2018-08-03T18:19:36.136Z,13.25
2018-08-03T18:22:07.648Z,12.90
2018-08-03T18:24:39.540Z,14.27
2018-08-03T18:27:16.124Z,15.17
2018-08-03T18:30:06.019Z,13.57
2018-08-03T18:32:36.639Z,14.17
2018-08-03T18:35:07.974Z,15.33
2018-08-03T18:37:44.361Z,12.83
2018-08-03T18:40:15.706Z,12.83
2018-08-03T18:42:57.076Z,14.53
2018-08-03T18:45:28.140Z,15.17
2018-08-03T18:47:59.399Z,15.93
2018-08-03T18:50:32.847Z,14.87
2018-08-03T18:53:04.120Z,13.90
2018-08-03T18:55:35.289Z,15.03
2018-08-03T18:58:06.356Z,14.80
2018-08-03T19:00:37.639Z,13.40
2018-08-03T19:03:08.759Z,13.57
2018-08-03T19:05:40.159Z,13.63
2018-08-03T19:08:11.188Z,16.97
2018-08-03T19:10:42.260Z,12.73
2018-08-03T19:13:13.216Z,14.60
2018-08-03T19:15:44.306Z,16.60
2018-08-03T19:18:16.292Z,15.20
2018-08-03T19:20:47.355Z,14.27
2018-08-03T19:23:18.379Z,15.83
2018-08-03T19:25:49.229Z,16.07
2018-08-03T19:28:20.361Z,14.07
2018-08-03T19:30:51.324Z,12.03
2018-08-03T19:33:22.463Z,13.87
2018-08-03T19:35:53.994Z,13.57
2018-08-03T19:38:25.367Z,13.90
2018-08-03T19:40:56.468Z,12.87
2018-08-03T19:43:27.473Z,13.07
2018-08-03T19:45:58.426Z,15.23
2018-08-03T19:48:32.646Z,13.43
2018-08-03T19:51:05.453Z,15.87
2018-08-03T19:53:36.530Z,13.73
2018-08-03T19:56:08.457Z,15.30
2018-08-03T19:58:39.441Z,12.83
2018-08-03T20:01:11.166Z,16.83
2018-08-03T20:03:47.080Z,13.30
2018-08-03T20:06:18.184Z,13.17
2018-08-03T20:08:49.206Z,13.13
2018-08-03T20:11:32.633Z,14.17
2018-08-03T20:14:03.537Z,14.23
2018-08-03T20:16:34.701Z,14.67
2018-08-03T20:19:27.260Z,14.90
2018-08-03T20:22:01.861Z,14.93
2018-08-03T20:24:45.591Z,14.03
2018-08-03T20:27:18.735Z,17.40
2018-08-03T20:29:49.633Z,15.57
2018-08-03T20:32:24.600Z,16.63
2018-08-03T20:34:55.126Z,13.27
2018-08-03T20:37:25.540Z,15.93
2018-08-03T20:39:56.155Z,17.73
2018-08-03T20:42:26.756Z,16.23
2018-08-03T20:44:57.361Z,16.23
2018-08-03T20:47:28.003Z,18.93
2018-08-03T20:50:14.556Z,14.33
2018-08-03T20:52:45.226Z,14.37
2018-08-03T20:55:16.398Z,12.47
2018-08-03T20:57:47.285Z,15.67
2018-08-03T21:00:18.259Z,14.23
2018-08-03T21:02:49.390Z,13.90
2018-08-03T21:05:20.408Z,14.47
2018-08-03T21:07:50.992Z,13.43
2018-08-03T21:10:21.776Z,15.07
2018-08-03T21:12:52.815Z,14.00
2018-08-03T21:15:23.758Z,14.73
2018-08-03T21:17:54.967Z,13.70
2018-08-03T21:20:26.095Z,14.73
2018-08-03T21:22:56.665Z,13.23
2018-08-03T21:25:27.026Z,15.40
2018-08-03T21:27:57.612Z,15.40
2018-08-03T21:30:28.596Z,13.13
2018-08-03T21:33:00.214Z,13.80
2018-08-03T21:35:31.159Z,13.33
2018-08-03T21:38:01.688Z,13.87
2018-08-03T21:40:32.606Z,13.93
2018-08-03T21:43:10.172Z,15.00
2018-08-03T21:45:43.943Z,15.83
2018-08-03T21:48:14.822Z,13.53
2018-08-03T21:50:48.115Z,14.03
2018-08-03T21:53:18.612Z,15.20
2018-08-03T21:55:55.501Z,14.47
2018-08-03T21:58:25.991Z,16.87
2018-08-03T22:00:56.554Z,15.83
2018-08-03T22:03:27.508Z,12.77
2018-08-03T22:05:59.038Z,16.53
2018-08-03T22:08:30.118Z,18.03
2018-08-03T22:11:22.729Z,14.70
2018-08-03T22:13:54.207Z,14.87
2018-08-03T22:16:25.116Z,15.27
2018-08-03T22:18:56.461Z,14.07
2018-08-03T22:21:27.395Z,14.03
2018-08-03T22:23:58.616Z,14.27
2018-08-03T22:26:29.439Z,14.20
2018-08-03T22:29:00.403Z,15.67
2018-08-03T22:31:31.401Z,19.43
2018-08-03T22:34:02.862Z,15.43
2018-08-03T22:36:33.366Z,17.10
2018-08-03T22:39:04.138Z,17.00
2018-08-03T22:41:34.607Z,14.50
2018-08-03T22:44:05.167Z,16.00
2018-08-03T22:46:35.575Z,15.87
2018-08-03T22:49:08.323Z,16.77
2018-08-03T22:51:39.223Z,15.10
2018-08-03T22:54:09.820Z,16.50
2018-08-03T22:56:40.301Z,14.20
2018-08-03T22:59:11.010Z,16.73
2018-08-03T23:01:41.499Z,19.60
2018-08-03T23:04:12.451Z,14.87
2018-08-03T23:06:59.575Z,14.93
2018-08-03T23:09:30.239Z,14.63
2018-08-03T23:12:00.992Z,17.77
2018-08-03T23:14:31.536Z,14.80
2018-08-03T23:17:02.147Z,15.50
2018-08-03T23:19:32.846Z,16.60
2018-08-03T23:22:03.227Z,14.47
2018-08-03T23:27:39.435Z,18.73
2018-08-03T23:30:11.474Z,15.53
2018-08-03T23:32:42.056Z,17.10
2018-08-03T23:35:12.799Z,17.20
2018-08-03T23:37:43.567Z,18.23
2018-08-03T23:40:14.162Z,17.57
2018-08-03T23:43:03.210Z,16.87
2018-08-03T23:45:36.729Z,17.80
2018-08-03T23:48:07.239Z,20.37
2018-08-03T23:50:37.689Z,16.77
2018-08-03T23:53:08.331Z,17.77
2018-08-03T23:55:38.813Z,15.63
2018-08-03T23:58:10.419Z,15.63
